sensor_id;sensor_type;location;lat;lon;timestamp;pressure;altitude;pressure_sealevel;temperature
75353;BMP280;63943;51.574;7.088;2022-09-29T17:30:47;69573.53;;;21.37
75353;BMP280;63943;51.574;7.088;2022-09-29T17:35:42;70819.34;;;21.33
75353;BMP280;63943;51.574;7.088;2022-09-29T17:38:10;70830.13;;;21.23
75353;BMP280;63943;51.574;7.088;2022-09-29T20:28:18;75735.31;;;21.19
75353;BMP280;63943;51.574;7.088;2022-09-29T20:30:43;76176.53;;;21.36
75353;BMP280;63943;51.574;7.088;2022-09-29T20:33:09;76288.41;;;21.41
75353;BMP280;63943;51.574;7.088;2022-09-29T20:35:37;76356.72;;;21.46
75353;BMP280;63943;51.574;7.088;2022-09-29T20:38:02;76351.97;;;21.49
75353;BMP280;63943;51.574;7.088;2022-09-29T20:40:28;76235.63;;;21.43
75353;BMP280;63943;51.574;7.088;2022-09-29T20:42:53;76347.56;;;21.48
75353;BMP280;63943;51.574;7.088;2022-09-29T20:45:18;76239.03;;;21.46
75353;BMP280;63943;51.574;7.088;2022-09-29T20:47:44;76166.97;;;21.42
75353;BMP280;63943;51.574;7.088;2022-09-29T20:50:09;76186.03;;;21.42
75353;BMP280;63943;51.574;7.088;2022-09-29T20:52:34;76186.03;;;21.42
75353;BMP280;63943;51.574;7.088;2022-09-29T20:54:59;76286.50;;;21.47
75353;BMP280;63943;51.574;7.088;2022-09-29T20:57:26;76260.81;;;21.46
75353;BMP280;63943;51.574;7.088;2022-09-29T20:59:52;76259.72;;;21.45
75353;BMP280;63943;51.574;7.088;2022-09-29T21:02:17;76338.25;;;21.47
75353;BMP280;63943;51.574;7.088;2022-09-29T21:04:42;76387.38;;;21.49
75353;BMP280;63943;51.574;7.088;2022-09-29T21:07:07;78329.81;;;22.01
75353;BMP280;63943;51.574;7.088;2022-09-29T21:09:53;86541.38;;;24.81
75353;BMP280;63943;51.574;7.088;2022-09-29T21:12:18;89441.78;;;26.41
75353;BMP280;63943;51.574;7.088;2022-09-29T21:14:43;91195.06;;;27.61
75353;BMP280;63943;51.574;7.088;2022-09-29T21:17:09;92145.69;;;28.54
75353;BMP280;63943;51.574;7.088;2022-09-29T21:19:34;88865.00;;;27.73
75353;BMP280;63943;51.574;7.088;2022-09-29T21:22:02;89571.91;;;28.21
75353;BMP280;63943;51.574;7.088;2022-09-29T21:24:27;90118.28;;;28.62
75353;BMP280;63943;51.574;7.088;2022-09-29T21:26:52;90261.31;;;28.90
75353;BMP280;63943;51.574;7.088;2022-09-29T21:29:18;91301.81;;;29.47
75353;BMP280;63943;51.574;7.088;2022-09-29T21:31:44;91497.47;;;29.83
75353;BMP280;63943;51.574;7.088;2022-09-29T21:34:10;88336.00;;;29.12
75353;BMP280;63943;51.574;7.088;2022-09-29T21:36:36;82079.84;;;26.66
75353;BMP280;63943;51.574;7.088;2022-09-29T21:39:03;82552.91;;;26.34
75353;BMP280;63943;51.574;7.088;2022-09-29T21:41:30;81253.91;;;25.85
75353;BMP280;63943;51.574;7.088;2022-09-29T21:43:58;78710.34;;;24.84
75353;BMP280;63943;51.574;7.088;2022-09-29T21:46:29;81511.75;;;25.43
75353;BMP280;63943;51.574;7.088;2022-09-29T21:48:56;83403.00;;;26.07
75353;BMP280;63943;51.574;7.088;2022-09-29T21:51:27;83121.78;;;26.02
75353;BMP280;63943;51.574;7.088;2022-09-29T21:53:53;82761.03;;;25.86
75353;BMP280;63943;51.574;7.088;2022-09-29T21:56:21;82351.69;;;25.70
75353;BMP280;63943;51.574;7.088;2022-09-29T21:58:48;83158.69;;;25.99
75353;BMP280;63943;51.574;7.088;2022-09-29T22:01:15;82220.09;;;25.68
75353;BMP280;63943;51.574;7.088;2022-09-29T22:03:42;82747.50;;;25.79
75353;BMP280;63943;51.574;7.088;2022-09-29T22:06:13;79257.75;;;24.55
75353;BMP280;63943;51.574;7.088;2022-09-29T22:08:39;83257.88;;;26.08
75353;BMP280;63943;51.574;7.088;2022-09-29T22:11:05;98116.06;;;30.84
75353;BMP280;63943;51.574;7.088;2022-09-29T22:13:30;91352.25;;;29.14
75353;BMP280;63943;51.574;7.088;2022-09-29T22:16:03;86041.38;;;27.96
75353;BMP280;63943;51.574;7.088;2022-09-29T22:18:33;86447.94;;;28.36
75353;BMP280;63943;51.574;7.088;2022-09-29T22:21:02;90530.53;;;29.19
75353;BMP280;63943;51.574;7.088;2022-09-29T22:23:28;93252.59;;;30.26
75353;BMP280;63943;51.574;7.088;2022-09-29T22:25:54;84731.59;;;28.02
75353;BMP280;63943;51.574;7.088;2022-09-29T22:28:20;82532.75;;;26.74
75353;BMP280;63943;51.574;7.088;2022-09-29T22:30:46;84698.56;;;26.84
75353;BMP280;63943;51.574;7.088;2022-09-29T22:33:12;89531.28;;;28.84
75353;BMP280;63943;51.574;7.088;2022-09-29T22:35:39;87510.59;;;28.07
75353;BMP280;63943;51.574;7.088;2022-09-29T22:38:05;84595.59;;;27.37
75353;BMP280;63943;51.574;7.088;2022-09-29T22:40:36;89655.03;;;28.88
75353;BMP280;63943;51.574;7.088;2022-09-29T22:43:02;86987.13;;;27.97
75353;BMP280;63943;51.574;7.088;2022-09-29T22:45:28;81332.13;;;26.37
75353;BMP280;63943;51.574;7.088;2022-09-29T22:47:54;81676.69;;;25.92
75353;BMP280;63943;51.574;7.088;2022-09-29T22:50:22;85996.25;;;27.32
75353;BMP280;63943;51.574;7.088;2022-09-29T22:52:50;89454.38;;;28.70
75353;BMP280;63943;51.574;7.088;2022-09-29T22:55:17;89454.38;;;28.70
75353;BMP280;63943;51.574;7.088;2022-09-29T22:57:42;76303.03;;;24.55
75353;BMP280;63943;51.574;7.088;2022-09-29T23:00:07;79742.16;;;24.85
75353;BMP280;63943;51.574;7.088;2022-09-29T23:02:33;75888.09;;;23.50
75353;BMP280;63943;51.574;7.088;2022-09-29T23:04:58;75653.78;;;23.16
75353;BMP280;63943;51.574;7.088;2022-09-29T23:07:23;77410.84;;;23.60
75353;BMP280;63943;51.574;7.088;2022-09-29T23:09:48;76516.34;;;23.21
75353;BMP280;63943;51.574;7.088;2022-09-29T23:12:14;78494.47;;;23.63
75353;BMP280;63943;51.574;7.088;2022-09-29T23:14:39;77114.56;;;23.21
75353;BMP280;63943;51.574;7.088;2022-09-29T23:17:04;76834.03;;;23.04
75353;BMP280;63943;51.574;7.088;2022-09-29T23:19:29;76941.88;;;22.98
75353;BMP280;63943;51.574;7.088;2022-09-29T23:21:55;76941.88;;;22.98
75353;BMP280;63943;51.574;7.088;2022-09-29T23:24:20;76977.84;;;22.87
75353;BMP280;63943;51.574;7.088;2022-09-29T23:26:48;77336.13;;;22.87
75353;BMP280;63943;51.574;7.088;2022-09-29T23:29:13;77159.22;;;22.78
75353;BMP280;63943;51.574;7.088;2022-09-29T23:31:38;77665.59;;;22.89
75353;BMP280;63943;51.574;7.088;2022-09-29T23:34:04;77809.50;;;22.93
75353;BMP280;63943;51.574;7.088;2022-09-29T23:36:30;77429.53;;;22.78
75353;BMP280;63943;51.574;7.088;2022-09-29T23:38:56;77858.91;;;22.88
75353;BMP280;63943;51.574;7.088;2022-09-29T23:41:37;78201.47;;;22.96
75353;BMP280;63943;51.574;7.088;2022-09-29T23:44:04;78016.53;;;22.92
75353;BMP280;63943;51.574;7.088;2022-09-29T23:46:31;78010.50;;;22.85
75353;BMP280;63943;51.574;7.088;2022-09-29T23:48:58;77959.03;;;22.83
75353;BMP280;63943;51.574;7.088;2022-09-29T23:51:24;77719.06;;;22.71
75353;BMP280;63943;51.574;7.088;2022-09-29T23:53:49;77757.69;;;22.69
75353;BMP280;63943;51.574;7.088;2022-09-29T23:56:15;77644.28;;;22.63
75353;BMP280;63943;51.574;7.088;2022-09-29T23:58:42;80250.19;;;23.19
